Vandenberg Air Force Base Lompoc US
ICAO: KVBG
IATA: VBG
Category: Large
Scheduled Services: No

Elevation: 369 ft
TransAlt. 18000 ft.

Airport Communications:
SANTA BARB APP/DEP:124.15
COMD POST:31.1
ATIS:133.125
CTAF:124.95
GND/CLNC DEL:121.75
RANGE CON:121.4
PMSV METRO:34.24
PTD:126.2
TWR:124.95

KVBG Zoom In..

If you have problems with the map follow the link
https://www.worldairports.se/pages/airport.php?
ICAO=KVBG

Runways:

(A) RW 12 length 15000 ft width 200 ft
ILS 110.10 / hdg 122

(B) RW 30 length 15000 ft width 200 ft
ILS 110.10 / hdg 302

Location; KVBG
Day. 16 / Time. 11.58 Zulu
* Altimeter: 29.99
* Temperature: 09° c. 48.2°f.
* Wind from: 140° Speed 04 kn.
Dewpoint: 03° c.
Visibility: 10 Statute Miles.
Clouds: Broken 24000 ft.
Clouds: Overcast 26000 ft.

KVBG 161158Z AUTO 14004KT 10SM BKN240 OVC260 09/03 A2999 RMK AO2 SLP158 T00870025 10117 20064 57010


Wind From 140°
Speed 04 kn.

 
 
jpsmedia.com for Web Design worldairports.se 2018   terms of use